sensor_id;sensor_type;location;lat;lon;timestamp;temperature;humidity
34008;DHT22;41085;51.594;7.138;2022-11-21T00:03:09;16.90;90.90
34008;DHT22;41085;51.594;7.138;2022-11-21T00:07:10;17.30;90.90
34008;DHT22;41085;51.594;7.138;2022-11-21T00:11:10;16.30;90.70
34008;DHT22;41085;51.594;7.138;2022-11-21T00:15:11;17.10;90.80
34008;DHT22;41085;51.594;7.138;2022-11-21T00:19:12;17.30;90.90
34008;DHT22;41085;51.594;7.138;2022-11-21T00:23:12;16.50;90.60
34008;DHT22;41085;51.594;7.138;2022-11-21T00:27:13;17.10;90.80
34008;DHT22;41085;51.594;7.138;2022-11-21T00:31:21;18.40;91.20
34008;DHT22;41085;51.594;7.138;2022-11-21T00:35:22;16.50;90.60
34008;DHT22;41085;51.594;7.138;2022-11-21T00:39:23;16.60;90.70
34008;DHT22;41085;51.594;7.138;2022-11-21T00:43:23;17.50;90.90
34008;DHT22;41085;51.594;7.138;2022-11-21T00:47:24;17.50;91.00
34008;DHT22;41085;51.594;7.138;2022-11-21T00:51:24;16.80;90.60
34008;DHT22;41085;51.594;7.138;2022-11-21T00:55:25;16.50;90.70
34008;DHT22;41085;51.594;7.138;2022-11-21T00:59:25;16.70;91.00
34008;DHT22;41085;51.594;7.138;2022-11-21T01:03:26;16.10;90.90
34008;DHT22;41085;51.594;7.138;2022-11-21T01:07:27;16.40;91.40
34008;DHT22;41085;51.594;7.138;2022-11-21T01:11:27;17.40;91.30
34008;DHT22;41085;51.594;7.138;2022-11-21T01:15:28;17.80;91.40
34008;DHT22;41085;51.594;7.138;2022-11-21T01:19:29;16.50;91.10
34008;DHT22;41085;51.594;7.138;2022-11-21T01:23:30;16.50;91.30
34008;DHT22;41085;51.594;7.138;2022-11-21T01:27:30;16.40;91.30
34008;DHT22;41085;51.594;7.138;2022-11-21T01:31:31;16.50;91.30
34008;DHT22;41085;51.594;7.138;2022-11-21T01:35:31;17.20;91.60
34008;DHT22;41085;51.594;7.138;2022-11-21T01:39:32;18.80;92.00
34008;DHT22;41085;51.594;7.138;2022-11-21T01:43:33;17.20;91.50
34008;DHT22;41085;51.594;7.138;2022-11-21T01:47:34;17.50;91.70
34008;DHT22;41085;51.594;7.138;2022-11-21T01:51:49;16.50;91.50
34008;DHT22;41085;51.594;7.138;2022-11-21T01:55:52;16.80;91.50
34008;DHT22;41085;51.594;7.138;2022-11-21T02:00:05;16.20;91.50
34008;DHT22;41085;51.594;7.138;2022-11-21T02:04:07;15.70;91.20
34008;DHT22;41085;51.594;7.138;2022-11-21T02:08:13;16.30;91.40
34008;DHT22;41085;51.594;7.138;2022-11-21T02:12:25;16.40;91.50
34008;DHT22;41085;51.594;7.138;2022-11-21T02:16:28;16.20;91.40
34008;DHT22;41085;51.594;7.138;2022-11-21T02:20:29;17.30;91.90
34008;DHT22;41085;51.594;7.138;2022-11-21T02:24:41;14.20;91.00
34008;DHT22;41085;51.594;7.138;2022-11-21T02:28:43;16.70;91.70
34008;DHT22;41085;51.594;7.138;2022-11-21T02:32:45;16.40;92.00
34008;DHT22;41085;51.594;7.138;2022-11-21T02:36:48;18.80;92.30
34008;DHT22;41085;51.594;7.138;2022-11-21T02:41:13;16.80;91.90
34008;DHT22;41085;51.594;7.138;2022-11-21T02:45:40;16.40;91.80
34008;DHT22;41085;51.594;7.138;2022-11-21T02:49:49;16.40;91.90
34008;DHT22;41085;51.594;7.138;2022-11-21T02:53:53;18.00;92.40
34008;DHT22;41085;51.594;7.138;2022-11-21T02:57:53;16.60;92.10
34008;DHT22;41085;51.594;7.138;2022-11-21T03:01:54;17.20;92.30
34008;DHT22;41085;51.594;7.138;2022-11-21T03:05:58;16.00;92.00
34008;DHT22;41085;51.594;7.138;2022-11-21T03:09:59;17.80;92.70
34008;DHT22;41085;51.594;7.138;2022-11-21T03:14:00;15.80;92.20
34008;DHT22;41085;51.594;7.138;2022-11-21T03:18:01;17.30;92.70
34008;DHT22;41085;51.594;7.138;2022-11-21T03:22:02;16.40;92.70
34008;DHT22;41085;51.594;7.138;2022-11-21T03:26:03;16.20;92.50
34008;DHT22;41085;51.594;7.138;2022-11-21T03:30:04;16.50;92.70
34008;DHT22;41085;51.594;7.138;2022-11-21T03:34:04;16.30;92.60
34008;DHT22;41085;51.594;7.138;2022-11-21T03:38:05;16.20;92.70
34008;DHT22;41085;51.594;7.138;2022-11-21T03:42:05;16.50;92.80
34008;DHT22;41085;51.594;7.138;2022-11-21T03:46:06;16.50;92.90
34008;DHT22;41085;51.594;7.138;2022-11-21T03:50:07;16.70;92.90
34008;DHT22;41085;51.594;7.138;2022-11-21T03:54:08;16.20;92.90
34008;DHT22;41085;51.594;7.138;2022-11-21T03:58:09;18.10;93.40
34008;DHT22;41085;51.594;7.138;2022-11-21T04:02:09;16.90;93.20
34008;DHT22;41085;51.594;7.138;2022-11-21T04:06:12;15.90;93.00
34008;DHT22;41085;51.594;7.138;2022-11-21T04:10:12;17.50;93.50
34008;DHT22;41085;51.594;7.138;2022-11-21T04:14:13;16.10;93.30
34008;DHT22;41085;51.594;7.138;2022-11-21T04:18:14;16.80;93.40
34008;DHT22;41085;51.594;7.138;2022-11-21T04:22:14;17.20;93.60
34008;DHT22;41085;51.594;7.138;2022-11-21T04:26:15;17.40;93.70
34008;DHT22;41085;51.594;7.138;2022-11-21T04:30:16;16.20;93.40
34008;DHT22;41085;51.594;7.138;2022-11-21T04:34:16;16.10;93.60
34008;DHT22;41085;51.594;7.138;2022-11-21T04:38:17;17.10;94.00
34008;DHT22;41085;51.594;7.138;2022-11-21T04:42:17;17.00;94.00
34008;DHT22;41085;51.594;7.138;2022-11-21T04:46:18;18.20;94.40
34008;DHT22;41085;51.594;7.138;2022-11-21T04:50:19;17.10;94.00
34008;DHT22;41085;51.594;7.138;2022-11-21T04:54:19;16.30;93.80
34008;DHT22;41085;51.594;7.138;2022-11-21T04:58:20;16.50;93.90
34008;DHT22;41085;51.594;7.138;2022-11-21T05:02:20;15.80;93.70
34008;DHT22;41085;51.594;7.138;2022-11-21T05:06:21;16.90;94.00
34008;DHT22;41085;51.594;7.138;2022-11-21T05:10:22;17.10;94.10
34008;DHT22;41085;51.594;7.138;2022-11-21T05:14:22;15.50;93.60
34008;DHT22;41085;51.594;7.138;2022-11-21T05:18:25;17.90;94.30
34008;DHT22;41085;51.594;7.138;2022-11-21T05:22:26;16.40;93.80
34008;DHT22;41085;51.594;7.138;2022-11-21T05:26:26;17.10;93.90
34008;DHT22;41085;51.594;7.138;2022-11-21T05:30:27;15.80;93.70
34008;DHT22;41085;51.594;7.138;2022-11-21T05:34:27;16.40;93.80
34008;DHT22;41085;51.594;7.138;2022-11-21T05:38:28;16.80;94.00
34008;DHT22;41085;51.594;7.138;2022-11-21T05:42:28;17.70;94.20
34008;DHT22;41085;51.594;7.138;2022-11-21T05:46:47;16.60;93.80
34008;DHT22;41085;51.594;7.138;2022-11-21T05:50:48;16.30;93.80
34008;DHT22;41085;51.594;7.138;2022-11-21T05:54:49;16.10;93.80
34008;DHT22;41085;51.594;7.138;2022-11-21T05:58:49;16.80;94.10
34008;DHT22;41085;51.594;7.138;2022-11-21T06:02:50;16.30;93.90
34008;DHT22;41085;51.594;7.138;2022-11-21T06:07:09;16.40;94.30
34008;DHT22;41085;51.594;7.138;2022-11-21T06:11:12;16.20;94.00
34008;DHT22;41085;51.594;7.138;2022-11-21T06:15:13;16.10;93.00
34008;DHT22;41085;51.594;7.138;2022-11-21T06:19:13;16.00;92.70
34008;DHT22;41085;51.594;7.138;2022-11-21T06:23:14;17.20;93.30
34008;DHT22;41085;51.594;7.138;2022-11-21T06:27:14;17.70;94.10
34008;DHT22;41085;51.594;7.138;2022-11-21T06:31:24;16.50;93.80
34008;DHT22;41085;51.594;7.138;2022-11-21T06:35:24;16.30;93.80
34008;DHT22;41085;51.594;7.138;2022-11-21T06:39:25;18.10;94.40
34008;DHT22;41085;51.594;7.138;2022-11-21T06:43:26;17.20;94.20
34008;DHT22;41085;51.594;7.138;2022-11-21T06:47:26;17.10;94.20
34008;DHT22;41085;51.594;7.138;2022-11-21T06:51:27;16.00;94.00
34008;DHT22;41085;51.594;7.138;2022-11-21T06:55:28;17.30;94.40
34008;DHT22;41085;51.594;7.138;2022-11-21T06:59:29;17.00;94.30
34008;DHT22;41085;51.594;7.138;2022-11-21T07:03:29;17.40;94.40
34008;DHT22;41085;51.594;7.138;2022-11-21T07:07:30;16.80;94.30
34008;DHT22;41085;51.594;7.138;2022-11-21T07:11:30;17.00;94.30
34008;DHT22;41085;51.594;7.138;2022-11-21T07:15:31;16.20;94.20
34008;DHT22;41085;51.594;7.138;2022-11-21T07:19:32;15.90;93.70
34008;DHT22;41085;51.594;7.138;2022-11-21T07:23:33;16.20;93.50
34008;DHT22;41085;51.594;7.138;2022-11-21T07:27:34;16.00;93.40
34008;DHT22;41085;51.594;7.138;2022-11-21T07:31:37;15.60;93.20
34008;DHT22;41085;51.594;7.138;2022-11-21T07:35:37;15.90;93.20
34008;DHT22;41085;51.594;7.138;2022-11-21T07:39:38;16.50;93.50
34008;DHT22;41085;51.594;7.138;2022-11-21T07:43:38;16.20;93.30
34008;DHT22;41085;51.594;7.138;2022-11-21T07:47:40;16.20;93.40
34008;DHT22;41085;51.594;7.138;2022-11-21T07:51:40;17.10;93.70
34008;DHT22;41085;51.594;7.138;2022-11-21T07:55:41;17.00;93.60
34008;DHT22;41085;51.594;7.138;2022-11-21T07:59:42;17.20;93.80
34008;DHT22;41085;51.594;7.138;2022-11-21T08:03:43;16.70;94.20
34008;DHT22;41085;51.594;7.138;2022-11-21T08:07:44;16.00;94.10
34008;DHT22;41085;51.594;7.138;2022-11-21T08:11:44;15.80;94.20
34008;DHT22;41085;51.594;7.138;2022-11-21T08:15:45;16.90;94.60
34008;DHT22;41085;51.594;7.138;2022-11-21T08:19:45;16.60;94.60
34008;DHT22;41085;51.594;7.138;2022-11-21T08:23:46;16.80;94.70
34008;DHT22;41085;51.594;7.138;2022-11-21T08:27:47;16.00;94.60
34008;DHT22;41085;51.594;7.138;2022-11-21T08:31:47;16.40;94.80
34008;DHT22;41085;51.594;7.138;2022-11-21T08:35:48;18.20;95.30
34008;DHT22;41085;51.594;7.138;2022-11-21T08:39:48;17.10;95.00
34008;DHT22;41085;51.594;7.138;2022-11-21T08:43:49;17.90;95.30
34008;DHT22;41085;51.594;7.138;2022-11-21T08:47:49;18.30;95.50
34008;DHT22;41085;51.594;7.138;2022-11-21T08:51:50;15.40;94.70
34008;DHT22;41085;51.594;7.138;2022-11-21T08:55:53;16.60;95.10
34008;DHT22;41085;51.594;7.138;2022-11-21T08:59:53;15.90;94.90
34008;DHT22;41085;51.594;7.138;2022-11-21T09:03:54;17.10;95.30
34008;DHT22;41085;51.594;7.138;2022-11-21T09:07:55;18.20;95.50
34008;DHT22;41085;51.594;7.138;2022-11-21T09:11:56;17.90;95.40
34008;DHT22;41085;51.594;7.138;2022-11-21T09:15:58;16.30;95.00
34008;DHT22;41085;51.594;7.138;2022-11-21T09:20:17;16.20;94.90
34008;DHT22;41085;51.594;7.138;2022-11-21T09:24:18;16.90;95.20
34008;DHT22;41085;51.594;7.138;2022-11-21T09:28:18;15.70;88.00
34008;DHT22;41085;51.594;7.138;2022-11-21T09:32:19;17.10;93.80
34008;DHT22;41085;51.594;7.138;2022-11-21T09:36:20;15.40;94.10
34008;DHT22;41085;51.594;7.138;2022-11-21T09:40:21;16.30;94.20
34008;DHT22;41085;51.594;7.138;2022-11-21T09:48:51;15.70;93.90
34008;DHT22;41085;51.594;7.138;2022-11-21T09:53:04;15.80;93.80
34008;DHT22;41085;51.594;7.138;2022-11-21T09:57:05;15.80;93.80
34008;DHT22;41085;51.594;7.138;2022-11-21T10:01:12;16.90;94.20
34008;DHT22;41085;51.594;7.138;2022-11-21T10:05:14;15.90;93.80
34008;DHT22;41085;51.594;7.138;2022-11-21T10:27:18;16.10;93.90
34008;DHT22;41085;51.594;7.138;2022-11-21T10:31:23;16.10;93.90
34008;DHT22;41085;51.594;7.138;2022-11-21T10:35:29;16.80;94.10
34008;DHT22;41085;51.594;7.138;2022-11-21T10:39:42;16.10;93.90
34008;DHT22;41085;51.594;7.138;2022-11-21T10:43:58;16.00;93.90
34008;DHT22;41085;51.594;7.138;2022-11-21T10:48:19;16.60;94.10
34008;DHT22;41085;51.594;7.138;2022-11-21T10:52:22;16.30;94.10
34008;DHT22;41085;51.594;7.138;2022-11-21T10:56:26;16.70;94.20
34008;DHT22;41085;51.594;7.138;2022-11-21T11:00:27;16.20;94.20
34008;DHT22;41085;51.594;7.138;2022-11-21T11:04:31;16.00;94.30
34008;DHT22;41085;51.594;7.138;2022-11-21T11:08:49;17.20;94.60
34008;DHT22;41085;51.594;7.138;2022-11-21T11:12:50;17.00;94.50
34008;DHT22;41085;51.594;7.138;2022-11-21T11:17:13;16.40;94.40
34008;DHT22;41085;51.594;7.138;2022-11-21T11:21:19;17.50;94.30
34008;DHT22;41085;51.594;7.138;2022-11-21T11:25:20;15.90;94.00
34008;DHT22;41085;51.594;7.138;2022-11-21T11:29:27;16.80;94.20
34008;DHT22;41085;51.594;7.138;2022-11-21T11:33:39;16.80;93.90
34008;DHT22;41085;51.594;7.138;2022-11-21T11:37:42;16.00;91.10
34008;DHT22;41085;51.594;7.138;2022-11-21T11:50:49;17.20;93.40
34008;DHT22;41085;51.594;7.138;2022-11-21T11:54:55;15.70;93.00
34008;DHT22;41085;51.594;7.138;2022-11-21T11:59:02;15.60;92.90
34008;DHT22;41085;51.594;7.138;2022-11-21T12:07:25;15.90;92.90
34008;DHT22;41085;51.594;7.138;2022-11-21T12:11:44;16.40;93.10
34008;DHT22;41085;51.594;7.138;2022-11-21T12:16:11;16.10;93.00
34008;DHT22;41085;51.594;7.138;2022-11-21T12:20:20;16.40;93.10
34008;DHT22;41085;51.594;7.138;2022-11-21T12:24:22;15.80;92.90
34008;DHT22;41085;51.594;7.138;2022-11-21T12:28:29;15.30;92.90
34008;DHT22;41085;51.594;7.138;2022-11-21T12:32:50;16.20;93.00
34008;DHT22;41085;51.594;7.138;2022-11-21T12:37:17;15.90;92.90
34008;DHT22;41085;51.594;7.138;2022-11-21T12:41:56;15.90;92.80
34008;DHT22;41085;51.594;7.138;2022-11-21T12:46:35;16.00;92.90
34008;DHT22;41085;51.594;7.138;2022-11-21T12:55:37;16.30;92.90
34008;DHT22;41085;51.594;7.138;2022-11-21T13:04:20;16.00;92.80
34008;DHT22;41085;51.594;7.138;2022-11-21T13:08:26;16.00;92.90
34008;DHT22;41085;51.594;7.138;2022-11-21T13:16:43;15.90;92.80
34008;DHT22;41085;51.594;7.138;2022-11-21T13:20:48;17.00;93.10
34008;DHT22;41085;51.594;7.138;2022-11-21T13:29:11;16.00;92.90
34008;DHT22;41085;51.594;7.138;2022-11-21T13:38:02;15.90;92.90
34008;DHT22;41085;51.594;7.138;2022-11-21T13:42:06;16.70;93.20
34008;DHT22;41085;51.594;7.138;2022-11-21T14:09:18;16.90;93.30
34008;DHT22;41085;51.594;7.138;2022-11-21T14:13:25;16.00;93.00
34008;DHT22;41085;51.594;7.138;2022-11-21T14:22:19;15.90;93.00
34008;DHT22;41085;51.594;7.138;2022-11-21T14:26:24;15.90;93.10
34008;DHT22;41085;51.594;7.138;2022-11-21T14:30:37;17.20;93.50
34008;DHT22;41085;51.594;7.138;2022-11-21T14:34:38;16.10;93.20
34008;DHT22;41085;51.594;7.138;2022-11-21T14:38:48;17.60;93.80
34008;DHT22;41085;51.594;7.138;2022-11-21T14:42:49;15.80;93.10
34008;DHT22;41085;51.594;7.138;2022-11-21T14:47:01;17.00;93.50
34008;DHT22;41085;51.594;7.138;2022-11-21T14:51:02;15.60;93.30
34008;DHT22;41085;51.594;7.138;2022-11-21T14:55:05;15.80;93.20
34008;DHT22;41085;51.594;7.138;2022-11-21T14:59:22;15.90;93.10
34008;DHT22;41085;51.594;7.138;2022-11-21T15:03:24;15.90;93.10
34008;DHT22;41085;51.594;7.138;2022-11-21T15:07:34;16.20;93.30
34008;DHT22;41085;51.594;7.138;2022-11-21T15:11:39;15.50;93.10
34008;DHT22;41085;51.594;7.138;2022-11-21T15:15:46;18.20;93.80
34008;DHT22;41085;51.594;7.138;2022-11-21T15:20:22;16.10;93.30
34008;DHT22;41085;51.594;7.138;2022-11-21T15:24:41;15.80;93.30
34008;DHT22;41085;51.594;7.138;2022-11-21T15:28:56;15.80;93.10
34008;DHT22;41085;51.594;7.138;2022-11-21T15:33:16;15.80;93.20
34008;DHT22;41085;51.594;7.138;2022-11-21T15:37:17;16.90;93.70
34008;DHT22;41085;51.594;7.138;2022-11-21T15:45:24;18.20;94.20
34008;DHT22;41085;51.594;7.138;2022-11-21T15:49:26;15.80;93.40
34008;DHT22;41085;51.594;7.138;2022-11-21T15:53:26;15.90;94.10
34008;DHT22;41085;51.594;7.138;2022-11-21T15:57:27;16.30;93.70
34008;DHT22;41085;51.594;7.138;2022-11-21T16:01:28;15.90;93.50
34008;DHT22;41085;51.594;7.138;2022-11-21T16:05:29;18.50;93.90
34008;DHT22;41085;51.594;7.138;2022-11-21T16:09:30;18.50;93.60
34008;DHT22;41085;51.594;7.138;2022-11-21T16:13:31;17.00;93.10
34008;DHT22;41085;51.594;7.138;2022-11-21T16:17:31;15.60;92.90
34008;DHT22;41085;51.594;7.138;2022-11-21T16:21:32;16.30;92.90
34008;DHT22;41085;51.594;7.138;2022-11-21T16:25:32;15.80;92.70
34008;DHT22;41085;51.594;7.138;2022-11-21T16:29:33;18.50;93.40
34008;DHT22;41085;51.594;7.138;2022-11-21T16:33:34;17.00;93.00
34008;DHT22;41085;51.594;7.138;2022-11-21T16:37:35;15.70;92.70
34008;DHT22;41085;51.594;7.138;2022-11-21T16:41:35;17.50;93.20
34008;DHT22;41085;51.594;7.138;2022-11-21T16:45:38;17.10;93.50
34008;DHT22;41085;51.594;7.138;2022-11-21T16:49:39;15.80;92.80
34008;DHT22;41085;51.594;7.138;2022-11-21T16:53:46;15.50;92.60
34008;DHT22;41085;51.594;7.138;2022-11-21T16:57:47;16.00;92.60
34008;DHT22;41085;51.594;7.138;2022-11-21T17:01:47;17.20;93.30
34008;DHT22;41085;51.594;7.138;2022-11-21T17:05:58;16.20;93.10
34008;DHT22;41085;51.594;7.138;2022-11-21T17:09:59;16.00;92.60
34008;DHT22;41085;51.594;7.138;2022-11-21T17:14:03;15.80;92.60
34008;DHT22;41085;51.594;7.138;2022-11-21T17:18:04;17.30;92.90
34008;DHT22;41085;51.594;7.138;2022-11-21T17:22:04;15.80;92.60
34008;DHT22;41085;51.594;7.138;2022-11-21T17:26:07;15.50;92.70
34008;DHT22;41085;51.594;7.138;2022-11-21T17:30:08;16.50;92.70
34008;DHT22;41085;51.594;7.138;2022-11-21T17:34:10;15.80;92.60
34008;DHT22;41085;51.594;7.138;2022-11-21T17:38:10;16.70;92.80
34008;DHT22;41085;51.594;7.138;2022-11-21T17:42:11;16.20;92.60
34008;DHT22;41085;51.594;7.138;2022-11-21T17:46:14;16.80;92.80
34008;DHT22;41085;51.594;7.138;2022-11-21T17:50:14;16.50;92.70
34008;DHT22;41085;51.594;7.138;2022-11-21T17:54:15;15.80;92.50
34008;DHT22;41085;51.594;7.138;2022-11-21T17:58:15;17.20;92.90
34008;DHT22;41085;51.594;7.138;2022-11-21T18:02:16;16.80;92.80
34008;DHT22;41085;51.594;7.138;2022-11-21T18:06:17;16.80;92.80
34008;DHT22;41085;51.594;7.138;2022-11-21T18:10:18;15.70;92.50
34008;DHT22;41085;51.594;7.138;2022-11-21T18:14:18;18.40;93.20
34008;DHT22;41085;51.594;7.138;2022-11-21T18:18:19;16.50;92.60
34008;DHT22;41085;51.594;7.138;2022-11-21T18:22:20;18.50;93.30
34008;DHT22;41085;51.594;7.138;2022-11-21T18:26:34;17.00;92.80
34008;DHT22;41085;51.594;7.138;2022-11-21T18:30:34;16.20;92.50
34008;DHT22;41085;51.594;7.138;2022-11-21T18:34:35;16.10;92.70
34008;DHT22;41085;51.594;7.138;2022-11-21T18:38:37;15.80;92.60
34008;DHT22;41085;51.594;7.138;2022-11-21T18:42:39;16.30;92.60
34008;DHT22;41085;51.594;7.138;2022-11-21T18:46:41;16.20;92.80
34008;DHT22;41085;51.594;7.138;2022-11-21T18:50:48;17.20;92.90
34008;DHT22;41085;51.594;7.138;2022-11-21T18:54:49;15.70;92.30
34008;DHT22;41085;51.594;7.138;2022-11-21T18:58:50;16.60;93.00
34008;DHT22;41085;51.594;7.138;2022-11-21T19:02:51;14.70;92.20
34008;DHT22;41085;51.594;7.138;2022-11-21T19:06:52;15.70;92.70
34008;DHT22;41085;51.594;7.138;2022-11-21T19:10:56;15.90;92.50
34008;DHT22;41085;51.594;7.138;2022-11-21T19:15:02;16.10;92.50
34008;DHT22;41085;51.594;7.138;2022-11-21T19:19:07;16.20;92.80
34008;DHT22;41085;51.594;7.138;2022-11-21T19:23:08;15.60;92.40
34008;DHT22;41085;51.594;7.138;2022-11-21T19:27:08;15.70;92.70
34008;DHT22;41085;51.594;7.138;2022-11-21T19:31:11;15.90;93.20
34008;DHT22;41085;51.594;7.138;2022-11-21T19:35:12;15.80;92.50
34008;DHT22;41085;51.594;7.138;2022-11-21T19:39:13;15.80;92.50
34008;DHT22;41085;51.594;7.138;2022-11-21T19:43:13;15.70;92.60
34008;DHT22;41085;51.594;7.138;2022-11-21T19:47:14;16.30;92.60
34008;DHT22;41085;51.594;7.138;2022-11-21T19:51:15;15.90;92.60
34008;DHT22;41085;51.594;7.138;2022-11-21T19:55:16;15.80;92.70
34008;DHT22;41085;51.594;7.138;2022-11-21T19:59:17;15.80;92.60
34008;DHT22;41085;51.594;7.138;2022-11-21T20:03:18;17.30;92.90
34008;DHT22;41085;51.594;7.138;2022-11-21T20:07:18;17.60;93.10
34008;DHT22;41085;51.594;7.138;2022-11-21T20:11:20;17.40;93.30
34008;DHT22;41085;51.594;7.138;2022-11-21T20:15:21;15.80;92.60
34008;DHT22;41085;51.594;7.138;2022-11-21T20:19:23;15.80;93.00
34008;DHT22;41085;51.594;7.138;2022-11-21T20:23:24;15.70;92.60
34008;DHT22;41085;51.594;7.138;2022-11-21T20:27:24;15.90;92.80
34008;DHT22;41085;51.594;7.138;2022-11-21T20:31:30;15.70;92.60
34008;DHT22;41085;51.594;7.138;2022-11-21T20:35:31;16.00;92.70
34008;DHT22;41085;51.594;7.138;2022-11-21T20:39:32;16.80;93.10
34008;DHT22;41085;51.594;7.138;2022-11-21T20:44:02;15.90;93.40
34008;DHT22;41085;51.594;7.138;2022-11-21T20:48:03;15.80;92.80
34008;DHT22;41085;51.594;7.138;2022-11-21T20:52:04;15.80;92.90
34008;DHT22;41085;51.594;7.138;2022-11-21T20:56:07;16.10;93.00
34008;DHT22;41085;51.594;7.138;2022-11-21T21:00:08;16.10;92.80
34008;DHT22;41085;51.594;7.138;2022-11-21T21:04:10;15.80;93.10
34008;DHT22;41085;51.594;7.138;2022-11-21T21:08:16;15.80;93.00
34008;DHT22;41085;51.594;7.138;2022-11-21T21:12:17;15.60;91.60
34008;DHT22;41085;51.594;7.138;2022-11-21T21:16:23;15.50;92.30
34008;DHT22;41085;51.594;7.138;2022-11-21T21:20:25;15.90;92.80
34008;DHT22;41085;51.594;7.138;2022-11-21T21:24:32;15.80;93.30
34008;DHT22;41085;51.594;7.138;2022-11-21T21:28:33;16.40;93.80
34008;DHT22;41085;51.594;7.138;2022-11-21T21:32:39;18.40;93.90
34008;DHT22;41085;51.594;7.138;2022-11-21T21:36:42;16.10;93.80
34008;DHT22;41085;51.594;7.138;2022-11-21T21:40:59;16.80;93.60
34008;DHT22;41085;51.594;7.138;2022-11-21T21:45:01;16.50;93.70
34008;DHT22;41085;51.594;7.138;2022-11-21T21:49:02;17.90;93.60
34008;DHT22;41085;51.594;7.138;2022-11-21T21:53:03;16.50;93.10
34008;DHT22;41085;51.594;7.138;2022-11-21T21:57:10;16.20;93.00
34008;DHT22;41085;51.594;7.138;2022-11-21T22:05:11;16.20;92.70
34008;DHT22;41085;51.594;7.138;2022-11-21T22:09:15;16.70;92.90
34008;DHT22;41085;51.594;7.138;2022-11-21T22:13:22;16.30;93.30
34008;DHT22;41085;51.594;7.138;2022-11-21T22:17:25;17.40;93.20
34008;DHT22;41085;51.594;7.138;2022-11-21T22:26:32;19.20;93.80
34008;DHT22;41085;51.594;7.138;2022-11-21T22:31:20;17.10;95.30
34008;DHT22;41085;51.594;7.138;2022-11-21T22:35:17;16.50;93.30
34008;DHT22;41085;51.594;7.138;2022-11-21T22:39:17;17.00;94.30
34008;DHT22;41085;51.594;7.138;2022-11-21T22:43:18;16.50;93.60
34008;DHT22;41085;51.594;7.138;2022-11-21T22:47:18;16.30;93.60
34008;DHT22;41085;51.594;7.138;2022-11-21T22:51:27;17.10;93.70
34008;DHT22;41085;51.594;7.138;2022-11-21T22:55:28;18.00;94.00
34008;DHT22;41085;51.594;7.138;2022-11-21T22:59:29;18.50;94.20
34008;DHT22;41085;51.594;7.138;2022-11-21T23:03:30;16.50;93.70
34008;DHT22;41085;51.594;7.138;2022-11-21T23:07:31;16.30;93.60
34008;DHT22;41085;51.594;7.138;2022-11-21T23:11:32;17.20;93.90
34008;DHT22;41085;51.594;7.138;2022-11-21T23:15:32;16.70;93.90
34008;DHT22;41085;51.594;7.138;2022-11-21T23:19:33;17.30;94.00
34008;DHT22;41085;51.594;7.138;2022-11-21T23:23:34;16.00;93.70
34008;DHT22;41085;51.594;7.138;2022-11-21T23:27:35;16.60;94.20
34008;DHT22;41085;51.594;7.138;2022-11-21T23:31:36;16.30;93.90
34008;DHT22;41085;51.594;7.138;2022-11-21T23:35:36;16.50;94.00
34008;DHT22;41085;51.594;7.138;2022-11-21T23:39:37;17.00;94.00
34008;DHT22;41085;51.594;7.138;2022-11-21T23:43:37;16.20;93.80
34008;DHT22;41085;51.594;7.138;2022-11-21T23:47:38;17.20;94.10
34008;DHT22;41085;51.594;7.138;2022-11-21T23:51:38;19.00;94.60
34008;DHT22;41085;51.594;7.138;2022-11-21T23:55:39;16.50;93.90
34008;DHT22;41085;51.594;7.138;2022-11-21T23:59:40;16.80;94.10
